Time;durP1;ratioP1;P1;durP2;ratioP2;P2;SDS_P1;SDS_P2;PMS_P1;PMS_P2;Temp;Humidity;BMP_temperature;BMP_pressure;BME280_temperature;BME280_humidity;BME280_pressure;Samples;Min_cycle;Max_cycle;Signal;HPM_P1;HPM_P2
2024/02/21 00:01:29;;;;;;;21.13;11.48;;;10.10;99.90;;;;;;4095722;28;20392;-70
2024/02/21 00:03:30;;;;;;;31.27;12.15;;;10.10;99.90;;;;;;4096917;28;20034;-70
2024/02/21 00:05:31;;;;;;;26.17;11.75;;;10.10;99.90;;;;;;4093744;28;20039;-70
2024/02/21 00:07:31;;;;;;;29.70;13.05;;;10.10;99.90;;;;;;4096130;28;20035;-69
2024/02/21 00:09:32;;;;;;;23.40;11.10;;;10.10;99.90;;;;;;4096368;28;20035;-70
2024/02/21 00:11:32;;;;;;;30.73;13.32;;;10.10;99.90;;;;;;4092983;28;20111;-70
2024/02/21 00:13:33;;;;;;;24.88;11.63;;;10.10;99.90;;;;;;4096876;28;20074;-70
2024/02/21 00:15:33;;;;;;;29.25;12.40;;;10.10;99.90;;;;;;4096467;28;20027;-70
2024/02/21 00:17:34;;;;;;;22.60;11.90;;;10.10;99.90;;;;;;4100699;28;20031;-70
2024/02/21 00:19:35;;;;;;;24.17;10.98;;;10.10;99.90;;;;;;4095430;28;20035;-70
2024/02/21 00:21:36;;;;;;;36.17;13.75;;;10.10;99.90;;;;;;4095566;28;20378;-70
2024/02/21 00:23:36;;;;;;;31.63;13.45;;;10.10;99.90;;;;;;4097038;28;20032;-70
2024/02/21 00:25:37;;;;;;;22.52;11.65;;;10.10;99.90;;;;;;4096277;28;20058;-70
2024/02/21 00:27:38;;;;;;;26.20;11.07;;;10.10;99.90;;;;;;4095964;28;20090;-70
2024/02/21 00:29:39;;;;;;;24.95;11.50;;;10.10;99.90;;;;;;4096424;28;20065;-70
2024/02/21 00:31:39;;;;;;;31.30;13.15;;;10.10;99.90;;;;;;4097529;28;20035;-70
2024/02/21 00:33:40;;;;;;;27.30;12.05;;;10.10;99.90;;;;;;4092230;28;20027;-70
2024/02/21 00:35:41;;;;;;;28.52;12.50;;;10.20;99.90;;;;;;4096281;28;20024;-69
2024/02/21 00:37:41;;;;;;;29.50;13.38;;;10.10;99.90;;;;;;4093359;28;20027;-70
2024/02/21 00:39:42;;;;;;;25.70;12.10;;;10.10;99.90;;;;;;4098399;28;20445;-68
2024/02/21 00:41:43;;;;;;;27.63;12.05;;;10.10;99.90;;;;;;4093724;28;20032;-68
2024/02/21 00:43:43;;;;;;;22.25;11.52;;;10.10;99.90;;;;;;4095296;28;20027;-69
2024/02/21 00:45:44;;;;;;;26.75;12.88;;;10.20;99.90;;;;;;4093109;28;20034;-68
2024/02/21 00:47:44;;;;;;;21.67;11.05;;;10.20;99.90;;;;;;4103934;28;20035;-68
2024/02/21 00:49:45;;;;;;;22.67;10.23;;;10.20;99.90;;;;;;4095654;28;20050;-70
2024/02/21 00:51:46;;;;;;;29.60;13.43;;;10.20;99.90;;;;;;4094490;28;20043;-67
2024/02/21 00:53:47;;;;;;;20.83;10.02;;;10.20;99.90;;;;;;4094795;28;20035;-68
2024/02/21 00:55:48;;;;;;;30.05;12.70;;;10.20;99.90;;;;;;4094272;28;20209;-67
2024/02/21 00:57:48;;;;;;;27.10;11.60;;;10.20;99.90;;;;;;4095061;28;20047;-68
2024/02/21 00:59:49;;;;;;;31.90;11.93;;;10.20;99.90;;;;;;4096773;28;20038;-68
2024/02/21 01:01:49;;;;;;;27.27;12.43;;;10.20;99.90;;;;;;4092945;28;20035;-67
2024/02/21 01:03:53;;;;;;;30.75;13.32;;;10.20;99.90;;;;;;4096422;28;20482;-67
2024/02/21 01:05:53;;;;;;;28.13;11.85;;;10.20;99.90;;;;;;4095999;28;20042;-68
2024/02/21 01:07:54;;;;;;;24.63;11.35;;;10.20;99.90;;;;;;4079517;28;20507;-67
2024/02/21 01:09:55;;;;;;;32.08;12.50;;;10.10;99.90;;;;;;4091184;28;20032;-67
2024/02/21 01:11:55;;;;;;;34.45;12.30;;;10.10;99.90;;;;;;4100849;28;20424;-67
2024/02/21 01:13:56;;;;;;;25.05;11.52;;;10.10;99.90;;;;;;4096443;28;20035;-68
2024/02/21 01:15:56;;;;;;;29.65;11.50;;;10.00;99.90;;;;;;4098757;28;20085;-67
2024/02/21 01:17:57;;;;;;;19.50;9.68;;;10.10;99.90;;;;;;4095794;28;20023;-70
2024/02/21 01:19:57;;;;;;;22.02;10.07;;;10.10;99.90;;;;;;4103858;28;20043;-67
2024/02/21 01:21:58;;;;;;;26.98;11.27;;;10.10;99.90;;;;;;4094637;28;20110;-69
2024/02/21 01:23:59;;;;;;;24.50;11.88;;;10.10;99.90;;;;;;4095650;28;20090;-69
2024/02/21 01:25:59;;;;;;;21.00;10.25;;;10.10;99.90;;;;;;4094513;28;20043;-67
2024/02/21 01:28:00;;;;;;;22.65;10.15;;;10.10;99.90;;;;;;4095584;28;20408;-67
2024/02/21 01:30:00;;;;;;;25.13;11.43;;;10.10;99.90;;;;;;4095142;28;20047;-66
2024/02/21 01:32:01;;;;;;;20.50;9.85;;;10.10;99.90;;;;;;4094303;28;20035;-70
2024/02/21 01:34:01;;;;;;;19.08;8.95;;;10.10;99.90;;;;;;4094536;28;20177;-67
2024/02/21 01:36:03;;;;;;;20.90;9.90;;;10.10;99.90;;;;;;4093682;28;20400;-67
2024/02/21 01:38:04;;;;;;;29.45;11.80;;;10.20;99.90;;;;;;4094721;28;20166;-68
2024/02/21 01:40:05;;;;;;;23.20;10.10;;;10.20;99.90;;;;;;4093270;28;20036;-70
2024/02/21 01:42:06;;;;;;;24.70;9.93;;;10.20;99.90;;;;;;4087247;29;20572;-68
2024/02/21 01:44:06;;;;;;;24.50;10.43;;;10.10;99.90;;;;;;4095686;28;20039;-67
2024/02/21 01:46:07;;;;;;;18.35;8.68;;;10.10;99.90;;;;;;4094282;28;20039;-67
2024/02/21 01:48:08;;;;;;;18.33;9.45;;;10.10;99.90;;;;;;4095922;28;20397;-68
2024/02/21 01:50:10;;;;;;;24.90;9.98;;;10.10;99.90;;;;;;4093029;28;20059;-67
2024/02/21 01:52:16;;;;;;;23.67;10.65;;;10.10;99.90;;;;;;4095532;28;20126;-67
2024/02/21 01:54:18;;;;;;;21.20;9.68;;;10.20;99.90;;;;;;4094996;28;20094;-67
2024/02/21 01:56:19;;;;;;;22.70;9.30;;;10.20;99.90;;;;;;4080222;29;20047;-67
2024/02/21 01:58:20;;;;;;;18.52;9.02;;;10.10;99.90;;;;;;4096687;28;20036;-69
2024/02/21 02:00:22;;;;;;;22.80;9.95;;;10.10;99.90;;;;;;4087939;28;20035;-67
2024/02/21 02:02:24;;;;;;;23.25;9.93;;;10.10;99.90;;;;;;4095394;28;20043;-67
2024/02/21 02:04:25;;;;;;;20.65;8.80;;;10.10;99.90;;;;;;4093726;28;20035;-69
2024/02/21 02:06:25;;;;;;;16.23;8.02;;;10.10;99.90;;;;;;4085711;28;20106;-67
2024/02/21 02:08:26;;;;;;;18.80;9.18;;;10.10;99.90;;;;;;4094046;28;20049;-67
2024/02/21 02:10:27;;;;;;;21.85;9.30;;;10.10;99.90;;;;;;4089948;28;20106;-67
2024/02/21 02:12:28;;;;;;;20.10;9.05;;;10.10;99.90;;;;;;4094799;28;20086;-67
2024/02/21 02:14:28;;;;;;;26.45;9.18;;;10.10;99.90;;;;;;4093170;28;20110;-67
2024/02/21 02:16:29;;;;;;;19.80;8.07;;;10.10;99.90;;;;;;4093751;28;20702;-69
2024/02/21 02:18:29;;;;;;;17.55;8.75;;;10.10;99.90;;;;;;4095473;28;20516;-67
2024/02/21 02:20:30;;;;;;;16.90;8.68;;;10.10;99.90;;;;;;4095115;28;20409;-68
2024/02/21 02:22:35;;;;;;;19.02;7.88;;;10.10;99.90;;;;;;4092278;28;20434;-69
2024/02/21 02:24:35;;;;;;;18.05;8.35;;;10.20;99.90;;;;;;4092772;28;20091;-68
2024/02/21 02:26:36;;;;;;;23.25;8.90;;;10.10;99.90;;;;;;4089580;28;20035;-68
2024/02/21 02:28:36;;;;;;;20.23;8.07;;;10.10;99.90;;;;;;4094867;28;20031;-68
2024/02/21 02:30:37;;;;;;;18.17;8.25;;;10.10;99.90;;;;;;4091748;28;20048;-69
2024/02/21 02:32:37;;;;;;;16.15;8.30;;;10.00;99.90;;;;;;4094829;29;20441;-68
2024/02/21 02:34:38;;;;;;;18.92;8.80;;;10.00;99.90;;;;;;4092224;28;20050;-68
2024/02/21 02:36:39;;;;;;;16.60;7.75;;;10.00;99.90;;;;;;4076260;29;20478;-68
2024/02/21 02:38:39;;;;;;;16.02;7.35;;;10.00;99.90;;;;;;4095893;28;20039;-69
2024/02/21 02:40:41;;;;;;;19.90;8.82;;;10.00;99.90;;;;;;4094749;28;20560;-68
2024/02/21 02:42:42;;;;;;;21.10;8.80;;;10.00;99.90;;;;;;4094712;28;20039;-67
2024/02/21 02:44:43;;;;;;;15.88;7.72;;;10.00;99.90;;;;;;4094002;28;20110;-68
2024/02/21 02:46:43;;;;;;;22.98;9.48;;;9.90;99.90;;;;;;4090686;28;20036;-68
2024/02/21 02:48:44;;;;;;;18.98;7.93;;;9.90;99.90;;;;;;4093262;28;20095;-68
2024/02/21 02:50:45;;;;;;;19.80;8.85;;;9.90;99.90;;;;;;4092293;28;20409;-67
2024/02/21 02:52:46;;;;;;;24.85;8.82;;;9.90;99.90;;;;;;4094520;28;20110;-67
2024/02/21 02:54:51;;;;;;;21.23;8.43;;;9.90;99.90;;;;;;4094252;28;20035;-67
2024/02/21 02:56:52;;;;;;;22.30;7.93;;;9.90;99.90;;;;;;4091371;28;20094;-70
2024/02/21 02:58:52;;;;;;;20.10;8.15;;;9.90;99.90;;;;;;4093836;28;20039;-68
2024/02/21 03:00:53;;;;;;;14.35;7.10;;;9.90;99.90;;;;;;4098311;28;20640;-68
2024/02/21 03:02:54;;;;;;;20.02;8.38;;;9.90;99.90;;;;;;4095005;28;20055;-67
2024/02/21 03:04:54;;;;;;;19.30;8.50;;;9.90;99.90;;;;;;4094267;28;20039;-67
2024/02/21 03:06:55;;;;;;;21.38;9.15;;;9.90;99.90;;;;;;4094261;28;20034;-67
2024/02/21 03:08:56;;;;;;;19.58;8.38;;;9.90;99.90;;;;;;4093844;28;20401;-68
2024/02/21 03:10:56;;;;;;;18.77;7.60;;;9.90;99.90;;;;;;4094284;28;20038;-68
2024/02/21 03:12:57;;;;;;;18.45;7.93;;;9.90;99.90;;;;;;4092578;28;20462;-70
2024/02/21 03:14:57;;;;;;;20.63;8.27;;;9.90;99.90;;;;;;4095023;28;20115;-69
2024/02/21 03:16:59;;;;;;;15.20;7.53;;;9.90;99.90;;;;;;4093847;28;20134;-68
2024/02/21 03:19:00;;;;;;;24.00;8.65;;;10.00;99.90;;;;;;4091601;28;20185;-67
2024/02/21 03:21:00;;;;;;;18.02;7.97;;;9.90;99.90;;;;;;4088447;28;20071;-69
2024/02/21 03:23:01;;;;;;;16.33;7.30;;;9.90;99.90;;;;;;4091564;28;20035;-68
2024/02/21 03:25:01;;;;;;;16.05;6.90;;;9.90;99.90;;;;;;4091180;28;20102;-67
2024/02/21 03:27:02;;;;;;;21.13;8.05;;;9.90;99.90;;;;;;4093385;28;20058;-68
2024/02/21 03:29:04;;;;;;;14.15;6.75;;;9.90;99.90;;;;;;4089126;28;20047;-68
2024/02/21 03:31:04;;;;;;;10.27;6.20;;;9.90;99.90;;;;;;4092763;28;20031;-70
2024/02/21 03:33:05;;;;;;;17.40;6.97;;;9.90;99.90;;;;;;4094113;28;20033;-70
2024/02/21 03:35:06;;;;;;;18.75;7.45;;;9.90;99.90;;;;;;4096344;28;20035;-70
2024/02/21 03:37:06;;;;;;;20.60;7.43;;;9.90;99.90;;;;;;4094377;28;20126;-70
2024/02/21 03:39:09;;;;;;;16.45;6.75;;;9.90;99.90;;;;;;4096476;28;20035;-70
2024/02/21 03:41:09;;;;;;;13.57;6.20;;;9.90;99.90;;;;;;4094685;28;20113;-70
2024/02/21 03:43:10;;;;;;;20.27;7.53;;;10.00;99.90;;;;;;4097465;28;20071;-70
2024/02/21 03:45:10;;;;;;;15.95;6.88;;;10.00;99.90;;;;;;4096830;28;20405;-70
2024/02/21 03:47:11;;;;;;;13.65;6.50;;;9.90;99.90;;;;;;4095630;28;20481;-70
2024/02/21 03:49:12;;;;;;;16.40;7.53;;;9.90;99.90;;;;;;4094471;28;20047;-70
2024/02/21 03:51:12;;;;;;;19.38;6.93;;;9.90;99.90;;;;;;4094290;29;20182;-70
2024/02/21 03:53:13;;;;;;;15.82;7.15;;;9.90;99.90;;;;;;4094614;28;20028;-70
2024/02/21 03:55:13;;;;;;;15.48;7.35;;;9.90;99.90;;;;;;4093257;28;20031;-70
2024/02/21 03:57:14;;;;;;;14.55;6.72;;;9.90;99.90;;;;;;4078859;29;20032;-70
2024/02/21 03:59:15;;;;;;;16.33;7.07;;;9.90;99.90;;;;;;4096051;28;20047;-70
2024/02/21 04:01:16;;;;;;;17.40;6.45;;;9.90;99.90;;;;;;4097434;28;20545;-70
2024/02/21 04:03:16;;;;;;;16.05;6.97;;;9.90;99.90;;;;;;4097346;28;20058;-70
2024/02/21 04:05:17;;;;;;;15.77;7.15;;;9.90;99.90;;;;;;4093963;28;20063;-70
2024/02/21 04:07:18;;;;;;;21.52;7.63;;;9.90;99.90;;;;;;4083423;28;20044;-71
2024/02/21 04:09:18;;;;;;;13.13;6.18;;;9.90;99.90;;;;;;4099565;28;20058;-70
2024/02/21 04:11:19;;;;;;;16.65;6.72;;;9.90;99.90;;;;;;4095777;28;20094;-70
2024/02/21 04:13:19;;;;;;;15.52;6.45;;;9.90;99.90;;;;;;4097402;28;20412;-70
2024/02/21 04:15:20;;;;;;;14.65;6.57;;;9.90;99.90;;;;;;4098934;28;20408;-70
2024/02/21 04:17:20;;;;;;;21.63;6.93;;;9.90;99.90;;;;;;4097252;28;20509;-70
2024/02/21 04:19:21;;;;;;;12.07;5.70;;;9.90;99.90;;;;;;4080227;29;20422;-70
2024/02/21 04:21:22;;;;;;;15.50;6.82;;;9.90;99.90;;;;;;4095934;28;20481;-70
2024/02/21 04:23:22;;;;;;;13.48;5.78;;;9.90;99.90;;;;;;4096423;28;20713;-70
2024/02/21 04:25:23;;;;;;;13.82;6.60;;;9.90;99.90;;;;;;4093416;29;20110;-71
2024/02/21 04:27:23;;;;;;;14.20;6.53;;;9.90;99.90;;;;;;4096857;28;20481;-70
2024/02/21 04:29:24;;;;;;;16.23;6.38;;;9.90;99.90;;;;;;4095300;28;20515;-70
2024/02/21 04:31:24;;;;;;;13.25;5.60;;;9.90;99.90;;;;;;4093147;28;21259;-70
2024/02/21 04:33:25;;;;;;;11.50;5.28;;;9.90;99.90;;;;;;4096592;28;20024;-70
2024/02/21 04:35:26;;;;;;;13.20;6.28;;;10.00;99.90;;;;;;4095875;28;20086;-70
2024/02/21 04:37:26;;;;;;;16.10;6.35;;;10.00;99.90;;;;;;4096930;28;20034;-70
2024/02/21 04:39:27;;;;;;;12.57;4.82;;;10.00;99.90;;;;;;4095223;28;20493;-70
2024/02/21 04:41:27;;;;;;;11.15;5.53;;;10.00;99.90;;;;;;4096083;28;20039;-67
2024/02/21 04:43:28;;;;;;;9.25;4.72;;;10.00;99.90;;;;;;4094992;28;20094;-67
2024/02/21 04:45:29;;;;;;;12.93;4.32;;;10.00;99.90;;;;;;4092703;28;20754;-67
2024/02/21 04:47:29;;;;;;;12.32;5.82;;;10.00;99.90;;;;;;4093089;28;20036;-68
2024/02/21 04:49:30;;;;;;;10.98;5.03;;;10.00;99.90;;;;;;4093972;28;20043;-67
2024/02/21 04:51:30;;;;;;;12.60;5.53;;;10.00;99.90;;;;;;4095796;28;20115;-69
2024/02/21 04:53:31;;;;;;;10.57;4.68;;;10.00;99.90;;;;;;4096742;28;20035;-67
2024/02/21 04:55:31;;;;;;;13.68;5.60;;;10.00;99.90;;;;;;4095368;28;20466;-68
2024/02/21 04:57:32;;;;;;;12.30;5.15;;;10.00;99.90;;;;;;4095772;28;20054;-68
2024/02/21 04:59:34;;;;;;;10.82;4.82;;;10.00;99.90;;;;;;4094886;28;20035;-68
2024/02/21 05:01:35;;;;;;;10.45;4.50;;;10.00;99.90;;;;;;4094652;28;20049;-68
2024/02/21 05:03:36;;;;;;;11.38;4.93;;;10.00;99.90;;;;;;4095742;28;20067;-67
2024/02/21 05:05:36;;;;;;;10.90;5.05;;;10.00;99.90;;;;;;4092756;28;20366;-68
2024/02/21 05:07:37;;;;;;;10.93;5.07;;;10.00;99.90;;;;;;4093346;28;20588;-69
2024/02/21 05:09:37;;;;;;;13.38;5.03;;;10.00;99.90;;;;;;4097029;28;20448;-67
2024/02/21 05:11:38;;;;;;;11.65;4.57;;;10.00;99.90;;;;;;4093190;28;20040;-68
2024/02/21 05:13:39;;;;;;;10.23;4.70;;;10.00;99.90;;;;;;4095313;28;20441;-68
2024/02/21 05:15:40;;;;;;;9.85;4.50;;;10.00;99.90;;;;;;4092907;28;20102;-67
2024/02/21 05:17:40;;;;;;;11.65;5.43;;;10.00;99.90;;;;;;4091941;28;20023;-68
2024/02/21 05:19:41;;;;;;;13.10;5.38;;;10.00;99.90;;;;;;4095168;28;20116;-67
2024/02/21 05:21:41;;;;;;;13.60;5.60;;;10.00;99.90;;;;;;4092956;28;20452;-67
2024/02/21 05:23:42;;;;;;;10.73;4.63;;;10.00;99.90;;;;;;4095157;28;20027;-68
2024/02/21 05:25:42;;;;;;;10.30;4.78;;;10.00;99.90;;;;;;4074693;29;20557;-67
2024/02/21 05:27:43;;;;;;;13.77;5.35;;;10.00;99.90;;;;;;4096776;28;20034;-67
2024/02/21 05:29:44;;;;;;;12.80;4.60;;;10.00;99.90;;;;;;4096798;28;20054;-68
2024/02/21 05:31:50;;;;;;;10.40;4.80;;;10.00;99.90;;;;;;4092264;28;20118;-67
2024/02/21 05:33:51;;;;;;;11.30;5.65;;;10.00;99.90;;;;;;4095527;28;20089;-70
2024/02/21 05:35:51;;;;;;;11.25;5.28;;;10.00;99.90;;;;;;4092548;28;20039;-68
2024/02/21 05:37:52;;;;;;;15.00;5.47;;;10.00;99.90;;;;;;4096081;28;20043;-68
2024/02/21 05:39:53;;;;;;;7.50;4.15;;;10.00;99.90;;;;;;4094532;28;20556;-68
2024/02/21 05:41:53;;;;;;;10.15;4.40;;;10.00;99.90;;;;;;4078734;28;20038;-67
2024/02/21 05:43:54;;;;;;;13.15;4.90;;;10.00;99.90;;;;;;4095317;28;20110;-67
2024/02/21 05:45:54;;;;;;;14.07;5.07;;;10.00;99.90;;;;;;4090774;28;20027;-68
2024/02/21 05:47:57;;;;;;;12.85;4.82;;;9.90;99.90;;;;;;4093275;28;20023;-69
2024/02/21 05:49:57;;;;;;;12.40;5.07;;;9.90;99.90;;;;;;4101995;28;20050;-69
2024/02/21 05:51:58;;;;;;;11.02;4.78;;;9.90;99.90;;;;;;4091773;28;20047;-70
2024/02/21 05:53:58;;;;;;;9.98;4.38;;;9.90;99.90;;;;;;4095172;28;20035;-70
2024/02/21 05:55:59;;;;;;;12.27;4.80;;;10.00;99.90;;;;;;4089974;28;20036;-70
2024/02/21 05:57:59;;;;;;;15.00;5.07;;;10.00;99.90;;;;;;4092442;28;20039;-70
2024/02/21 06:00:00;;;;;;;10.23;5.03;;;10.00;99.90;;;;;;4094682;28;20452;-70
2024/02/21 06:02:03;;;;;;;11.90;4.97;;;10.00;99.90;;;;;;4091609;28;20054;-69
2024/02/21 06:04:04;;;;;;;;;;;9.90;99.90;;;;;;4094778;28;20031;-70
2024/02/21 06:06:05;;;;;;;12.55;5.78;;;9.90;99.90;;;;;;4092036;28;19918;-70
2024/02/21 06:08:06;;;;;;;10.02;5.30;;;9.90;99.90;;;;;;4094690;28;20034;-70
2024/02/21 06:10:07;;;;;;;10.85;4.85;;;9.90;99.90;;;;;;4092547;28;20142;-69
2024/02/21 06:12:08;;;;;;;12.40;5.35;;;9.90;99.90;;;;;;4088724;28;20130;-70
2024/02/21 06:14:08;;;;;;;11.35;5.60;;;9.90;99.90;;;;;;4086412;28;20043;-69
2024/02/21 06:16:09;;;;;;;15.20;6.05;;;9.90;99.90;;;;;;4090483;28;20453;-69
2024/02/21 06:18:09;;;;;;;14.20;5.38;;;9.80;99.90;;;;;;4090088;28;20398;-69
2024/02/21 06:20:10;;;;;;;13.57;5.20;;;9.80;99.90;;;;;;4070802;28;20132;-69
2024/02/21 06:22:11;;;;;;;17.35;5.57;;;9.80;99.90;;;;;;4087961;28;20063;-69
2024/02/21 06:24:12;;;;;;;21.70;6.30;;;9.80;99.90;;;;;;4092236;28;20081;-69
2024/02/21 06:26:13;;;;;;;17.33;6.05;;;9.80;99.90;;;;;;4089062;28;20122;-70
2024/02/21 06:28:13;;;;;;;12.80;6.18;;;9.80;99.90;;;;;;4088391;28;20508;-70
2024/02/21 06:30:14;;;;;;;14.88;6.05;;;9.80;99.90;;;;;;4080652;28;20110;-70
2024/02/21 06:32:15;;;;;;;17.85;6.05;;;9.80;99.90;;;;;;4088793;28;20479;-70
2024/02/21 06:34:15;;;;;;;19.40;6.32;;;9.80;99.90;;;;;;4076296;28;20521;-70
2024/02/21 06:36:16;;;;;;;11.35;5.15;;;9.80;99.90;;;;;;4085718;28;20405;-71
2024/02/21 06:38:17;;;;;;;12.18;5.60;;;9.80;99.90;;;;;;4088463;28;20043;-70
2024/02/21 06:40:21;;;;;;;17.27;6.20;;;9.80;99.90;;;;;;4081421;28;20039;-70
2024/02/21 06:42:25;;;;;;;14.88;6.68;;;9.80;99.90;;;;;;4073848;28;20063;-71
2024/02/21 06:44:26;;;;;;;16.92;6.38;;;9.80;99.90;;;;;;4064893;28;20032;-71
2024/02/21 06:46:31;;;;;;;15.80;6.40;;;9.80;99.90;;;;;;4069150;28;20139;-71
2024/02/21 06:48:32;;;;;;;19.33;6.43;;;9.80;99.90;;;;;;4081281;28;20069;-71
2024/02/21 06:50:32;;;;;;;15.77;5.80;;;9.80;99.90;;;;;;4090046;28;20039;-71
2024/02/21 06:52:33;;;;;;;16.00;6.05;;;9.80;99.90;;;;;;4094394;28;20050;-71
2024/02/21 06:54:33;;;;;;;17.17;6.07;;;9.80;99.90;;;;;;4087610;28;20047;-71
2024/02/21 06:56:34;;;;;;;15.00;5.82;;;9.80;99.90;;;;;;4092653;28;20038;-70
2024/02/21 06:58:35;;;;;;;18.25;5.90;;;9.70;99.90;;;;;;4092914;28;20044;-71
2024/02/21 07:00:35;;;;;;;12.27;5.78;;;9.70;99.90;;;;;;4092676;28;20054;-70
2024/02/21 07:02:36;;;;;;;16.13;5.65;;;9.80;99.90;;;;;;4095337;28;20043;-69
2024/02/21 07:04:36;;;;;;;12.93;6.28;;;9.80;99.90;;;;;;4093812;28;20039;-68
2024/02/21 07:06:37;;;;;;;11.18;5.63;;;9.80;99.90;;;;;;4093650;28;20042;-67
2024/02/21 07:08:38;;;;;;;10.68;5.57;;;9.80;99.90;;;;;;4095967;28;20039;-68
2024/02/21 07:10:39;;;;;;;14.40;5.45;;;9.80;99.90;;;;;;4096667;28;20039;-68
2024/02/21 07:12:43;;;;;;;18.65;6.57;;;9.80;99.90;;;;;;4085831;28;20416;-68
2024/02/21 07:14:44;;;;;;;15.50;6.18;;;9.80;99.90;;;;;;4079631;28;20107;-68
2024/02/21 07:16:45;;;;;;;14.18;6.03;;;9.80;99.90;;;;;;4095083;28;20090;-70
2024/02/21 07:18:46;;;;;;;15.45;5.90;;;9.80;99.90;;;;;;4097101;28;20031;-68
2024/02/21 07:20:46;;;;;;;15.68;6.00;;;9.70;99.90;;;;;;4096006;28;20036;-68
2024/02/21 07:22:47;;;;;;;12.80;5.35;;;9.80;99.90;;;;;;4096687;28;20122;-68
2024/02/21 07:24:47;;;;;;;9.00;4.97;;;9.80;99.90;;;;;;4094334;28;20027;-68
2024/02/21 07:26:48;;;;;;;18.63;5.95;;;9.80;99.90;;;;;;4095059;28;20035;-68
2024/02/21 07:28:49;;;;;;;16.08;6.38;;;9.80;99.90;;;;;;4097646;28;20394;-68
2024/02/21 07:30:49;;;;;;;15.70;6.30;;;9.80;99.90;;;;;;4093447;28;20094;-68
2024/02/21 07:32:51;;;;;;;14.68;6.05;;;9.80;99.90;;;;;;4096194;28;20094;-68
2024/02/21 07:34:51;;;;;;;18.73;5.65;;;9.80;99.90;;;;;;4097716;28;20035;-67
2024/02/21 07:36:52;;;;;;;11.98;5.55;;;9.80;99.90;;;;;;4092086;28;20042;-68
2024/02/21 07:38:52;;;;;;;10.45;5.00;;;9.80;99.90;;;;;;4098235;28;20035;-68
2024/02/21 07:40:53;;;;;;;12.90;5.50;;;9.70;99.90;;;;;;4094255;28;20358;-68
2024/02/21 07:42:53;;;;;;;15.98;6.07;;;9.80;99.90;;;;;;4096842;28;20497;-68
2024/02/21 07:44:56;;;;;;;13.15;5.97;;;9.80;99.90;;;;;;4095870;28;20043;-70
2024/02/21 07:46:56;;;;;;;12.20;5.60;;;9.80;99.90;;;;;;4096344;28;20032;-68
2024/02/21 07:48:57;;;;;;;12.25;5.35;;;9.80;99.90;;;;;;4096268;28;20028;-69
2024/02/21 07:50:57;;;;;;;11.88;4.90;;;9.80;99.90;;;;;;4077352;28;20467;-68
2024/02/21 07:52:58;;;;;;;12.82;4.88;;;9.80;99.90;;;;;;4091885;28;20482;-69
2024/02/21 07:54:58;;;;;;;12.23;5.25;;;9.80;99.90;;;;;;4078449;28;20046;-69
2024/02/21 07:56:59;;;;;;;8.13;4.72;;;9.80;99.90;;;;;;4090627;28;20040;-69
2024/02/21 07:59:00;;;;;;;12.32;4.40;;;9.80;99.90;;;;;;4093171;28;20047;-70
2024/02/21 08:01:00;;;;;;;13.20;4.57;;;9.80;99.90;;;;;;4095661;28;20067;-71
2024/02/21 08:03:01;;;;;;;10.98;4.50;;;9.80;99.90;;;;;;4080633;28;20035;-69
2024/02/21 08:05:03;;;;;;;13.10;5.10;;;9.80;99.90;;;;;;4096046;28;20523;-69
2024/02/21 08:07:04;;;;;;;10.95;4.63;;;9.80;99.90;;;;;;4096129;28;20050;-69
2024/02/21 08:09:04;;;;;;;13.68;5.07;;;9.80;99.90;;;;;;4097892;28;20028;-69
2024/02/21 08:11:05;;;;;;;11.48;5.13;;;9.80;99.90;;;;;;4095493;28;20035;-69
2024/02/21 08:13:06;;;;;;;11.98;4.50;;;9.80;99.90;;;;;;4095660;28;20513;-69
2024/02/21 08:15:10;;;;;;;13.00;5.18;;;9.80;99.90;;;;;;4095318;28;20047;-68
2024/02/21 08:17:11;;;;;;;11.05;4.03;;;9.80;99.90;;;;;;4095990;28;20047;-70
2024/02/21 08:19:11;;;;;;;9.10;4.20;;;9.80;99.90;;;;;;4096836;28;20410;-68
2024/02/21 08:21:12;;;;;;;17.10;4.93;;;9.80;99.90;;;;;;4104781;28;20133;-68
2024/02/21 08:23:15;;;;;;;7.68;3.60;;;9.80;99.90;;;;;;4096972;28;20035;-70
2024/02/21 08:25:16;;;;;;;8.50;3.47;;;9.90;99.90;;;;;;4094139;28;20502;-71
2024/02/21 08:27:16;;;;;;;8.90;3.90;;;9.90;99.90;;;;;;4096554;28;20039;-70
2024/02/21 08:29:17;;;;;;;12.15;4.20;;;9.90;99.90;;;;;;4095142;28;20070;-70
2024/02/21 08:31:20;;;;;;;12.38;4.13;;;9.90;99.90;;;;;;4091787;28;20102;-70
2024/02/21 08:33:24;;;;;;;11.40;4.15;;;9.90;99.90;;;;;;4096100;28;20035;-71
2024/02/21 08:35:25;;;;;;;15.52;4.53;;;9.90;99.90;;;;;;4095060;28;20039;-71
2024/02/21 08:37:27;;;;;;;13.18;4.20;;;9.90;99.90;;;;;;4096276;28;20035;-71
2024/02/21 08:39:31;;;;;;;11.52;4.35;;;10.00;99.90;;;;;;4095592;28;20485;-71
2024/02/21 08:41:33;;;;;;;10.32;4.38;;;9.90;99.90;;;;;;4094350;28;20050;-67
2024/02/21 08:43:35;;;;;;;15.20;4.97;;;9.90;99.90;;;;;;4091044;28;20031;-68
2024/02/21 08:45:37;;;;;;;19.25;5.47;;;9.90;99.90;;;;;;4093574;28;20031;-68
2024/02/21 08:47:41;;;;;;;19.02;5.38;;;9.90;99.90;;;;;;4094658;28;20039;-68
2024/02/21 08:49:41;;;;;;;16.05;5.47;;;9.90;99.90;;;;;;4094624;28;20385;-69
2024/02/21 08:51:43;;;;;;;14.52;4.90;;;9.90;99.90;;;;;;4093842;28;20034;-68
2024/02/21 08:53:47;;;;;;;21.63;5.75;;;9.90;99.90;;;;;;4094517;28;20032;-69
2024/02/21 08:55:48;;;;;;;15.18;4.45;;;9.90;99.90;;;;;;4092010;28;20042;-68
2024/02/21 08:57:48;;;;;;;15.07;5.15;;;9.90;99.90;;;;;;4090365;28;20508;-68
2024/02/21 08:59:49;;;;;;;11.93;4.10;;;10.00;99.90;;;;;;4097100;28;20035;-70
2024/02/21 09:01:52;;;;;;;10.98;4.45;;;9.90;99.90;;;;;;4092452;28;20027;-70
2024/02/21 09:03:53;;;;;;;14.73;4.53;;;9.90;99.90;;;;;;4094322;28;20248;-71
2024/02/21 09:05:54;;;;;;;16.55;5.07;;;9.90;99.90;;;;;;4094598;28;20039;-70
2024/02/21 09:07:55;;;;;;;17.38;4.43;;;9.90;99.90;;;;;;4096646;28;20080;-70
2024/02/21 09:09:55;;;;;;;10.35;4.13;;;9.90;99.90;;;;;;4094409;28;20046;-70
2024/02/21 09:11:56;;;;;;;13.50;4.05;;;9.90;99.90;;;;;;4093728;28;20259;-70
2024/02/21 09:13:56;;;;;;;13.52;4.75;;;9.90;99.90;;;;;;4089316;28;20575;-70
2024/02/21 09:15:57;;;;;;;14.00;4.43;;;9.90;99.90;;;;;;4092442;28;20047;-70
2024/02/21 09:17:57;;;;;;;16.17;4.18;;;9.80;99.90;;;;;;4095330;28;20035;-70
2024/02/21 09:19:59;;;;;;;12.18;4.25;;;9.90;99.90;;;;;;4091991;28;20043;-70
2024/02/21 09:22:00;;;;;;;9.45;4.15;;;9.80;99.90;;;;;;4090959;28;20493;-70
2024/02/21 09:24:00;;;;;;;9.80;3.45;;;9.90;99.90;;;;;;4095214;28;20122;-70
2024/02/21 09:26:03;;;;;;;15.75;3.65;;;9.90;99.90;;;;;;4093239;28;20024;-70
2024/02/21 09:28:06;;;;;;;11.95;3.70;;;9.90;99.90;;;;;;4091456;28;20137;-70
2024/02/21 09:30:07;;;;;;;11.82;3.72;;;9.90;99.90;;;;;;4091408;28;20050;-70
2024/02/21 09:32:07;;;;;;;9.88;3.95;;;9.90;99.90;;;;;;4094059;28;20071;-70
2024/02/21 09:34:08;;;;;;;11.07;3.78;;;9.90;99.90;;;;;;4077027;29;20494;-70
2024/02/21 09:36:08;;;;;;;12.48;4.22;;;9.90;99.90;;;;;;4093243;28;20398;-70
2024/02/21 09:38:09;;;;;;;12.50;4.05;;;9.90;99.90;;;;;;4093375;28;20422;-70
2024/02/21 09:40:10;;;;;;;17.38;4.18;;;9.90;99.90;;;;;;4092933;28;20032;-70
2024/02/21 09:42:11;;;;;;;12.43;3.72;;;9.90;99.90;;;;;;4095239;28;20058;-70
2024/02/21 09:44:14;;;;;;;11.00;3.58;;;9.80;99.90;;;;;;4092342;28;20079;-70
2024/02/21 09:46:18;;;;;;;12.38;4.10;;;9.80;99.90;;;;;;4093502;28;20070;-70
2024/02/21 09:48:58;;;;;;;11.75;4.00;;;9.90;99.90;;;;;;4089568;28;20575;-70
2024/02/21 09:50:59;;;;;;;10.93;3.38;;;9.90;99.90;;;;;;4091363;28;20509;-70
2024/02/21 09:53:02;;;;;;;8.88;4.10;;;9.90;99.90;;;;;;4087797;28;20043;-70
2024/02/21 09:55:04;;;;;;;6.75;3.22;;;9.90;99.90;;;;;;4091115;28;20397;-71
2024/02/21 09:57:06;;;;;;;10.50;3.47;;;10.00;99.90;;;;;;4096773;28;20464;-70
2024/02/21 09:59:07;;;;;;;15.50;4.65;;;10.00;99.90;;;;;;4089775;28;20051;-70
2024/02/21 10:01:08;;;;;;;10.23;3.85;;;9.90;99.90;;;;;;4093562;28;20039;-70
2024/02/21 10:03:09;;;;;;;9.98;3.72;;;10.00;99.90;;;;;;4095226;28;20386;-70
2024/02/21 10:05:09;;;;;;;11.35;3.78;;;10.00;99.90;;;;;;4093622;28;20042;-70
2024/02/21 10:07:11;;;;;;;12.85;3.55;;;10.00;99.90;;;;;;4092414;28;20040;-70
2024/02/21 10:09:27;;;;;;;10.05;3.38;;;10.00;99.90;;;;;;4093439;28;20118;-70
2024/02/21 10:11:28;;;;;;;7.07;2.90;;;10.00;99.90;;;;;;4093618;28;20027;-70
2024/02/21 10:13:30;;;;;;;6.47;2.80;;;10.00;99.90;;;;;;4091197;28;20044;-71
2024/02/21 10:15:30;;;;;;;7.72;3.25;;;10.10;99.90;;;;;;4093110;28;20035;-71
2024/02/21 10:17:32;;;;;;;9.65;3.35;;;10.00;99.90;;;;;;4094970;28;20404;-71
2024/02/21 10:19:33;;;;;;;7.88;3.25;;;10.00;99.90;;;;;;4093083;28;20155;-71
2024/02/21 10:21:33;;;;;;;8.77;3.45;;;10.10;99.90;;;;;;4093072;28;20130;-70
2024/02/21 10:23:44;;;;;;;7.75;2.83;;;10.00;99.90;;;;;;4091374;28;20039;-69
2024/02/21 10:25:47;;;;;;;7.88;3.08;;;10.00;99.90;;;;;;4092411;28;20181;-70